createdAt,value
2022-11-29T00:00:36.404Z,101250.41
2022-11-29T00:03:03.072Z,101244.81
2022-11-29T00:05:29.710Z,101249.22
2022-11-29T00:07:56.315Z,101252.78
2022-11-29T00:10:22.822Z,101250.75
2022-11-29T00:12:49.375Z,101248.72
2022-11-29T00:15:16.053Z,101250.09
2022-11-29T00:17:42.660Z,101248.88
2022-11-29T00:20:12.295Z,101251.25
2022-11-29T00:22:39.367Z,101254.78
2022-11-29T00:25:07.216Z,101247.03
2022-11-29T00:27:33.839Z,101255.31
2022-11-29T00:30:00.381Z,101245.19
2022-11-29T00:32:26.955Z,101251.44
2022-11-29T00:34:53.501Z,101243.31
2022-11-29T00:37:20.048Z,101250.59
2022-11-29T00:39:46.595Z,101246.88
2022-11-29T00:42:13.152Z,101245.19
2022-11-29T00:44:39.694Z,101251.78
2022-11-29T00:47:06.200Z,101247.41
2022-11-29T00:49:32.848Z,101247.88
2022-11-29T00:51:59.771Z,101246.56
2022-11-29T00:54:26.465Z,101245.19
2022-11-29T00:56:53.010Z,101249.25
2022-11-29T00:59:19.573Z,101244.16
2022-11-29T01:01:46.162Z,101240.13
2022-11-29T01:04:12.846Z,101242.66
2022-11-29T01:06:39.407Z,101242.19
2022-11-29T01:09:06.042Z,101244.53
2022-11-29T01:11:32.663Z,101240.13
2022-11-29T01:14:01.850Z,101251.78
2022-11-29T01:16:30.408Z,101248.72
2022-11-29T01:18:57.028Z,101252.63
2022-11-29T01:21:24.574Z,101243.03
2022-11-29T01:23:52.532Z,101244.53
2022-11-29T01:26:22.035Z,101252.25
2022-11-29T01:28:51.190Z,101241.81
2022-11-29T01:31:22.020Z,101249.09
2022-11-29T01:33:48.674Z,101239.78
2022-11-29T01:36:15.341Z,101239.47
2022-11-29T01:38:44.952Z,101237.94
2022-11-29T01:41:15.183Z,101247.41
2022-11-29T01:44:02.535Z,101247.22
2022-11-29T01:46:32.374Z,101243.19
2022-11-29T01:49:05.010Z,101240.97
2022-11-29T01:51:34.309Z,101243.19
2022-11-29T01:54:00.982Z,101246.88
2022-11-29T01:56:30.215Z,101239.78
2022-11-29T01:58:56.894Z,101244.34
2022-11-29T02:01:23.954Z,101239.13
2022-11-29T02:03:50.509Z,101245.19
2022-11-29T02:06:17.539Z,101235.56
2022-11-29T02:08:44.540Z,101240.63
2022-11-29T02:11:47.059Z,101239.97
2022-11-29T02:14:32.185Z,101239.31
2022-11-29T02:17:14.552Z,101238.63
2022-11-29T02:19:53.157Z,101238.94
2022-11-29T02:22:28.693Z,101245.53
2022-11-29T02:25:04.175Z,101245.72
2022-11-29T02:28:08.375Z,101245.72
2022-11-29T02:30:57.551Z,101246.88
2022-11-29T02:33:53.078Z,101247.91
2022-11-29T02:37:01.173Z,101251.28
2022-11-29T02:39:33.771Z,101256.53
2022-11-29T02:42:55.653Z,101249.91
2022-11-29T02:45:47.927Z,101261.75
2022-11-29T02:48:23.495Z,101264.44
2022-11-29T02:51:17.616Z,101260.91
2022-11-29T02:54:10.932Z,101258.38
2022-11-29T02:56:40.606Z,101266.78
2022-11-29T02:59:17.162Z,101263.41
2022-11-29T03:02:12.764Z,101260.91
2022-11-29T03:04:49.154Z,101262.59
2022-11-29T03:07:46.507Z,101266.31
2022-11-29T03:10:35.532Z,101269.34
2022-11-29T03:13:05.743Z,101266.31
2022-11-29T03:15:38.221Z,101267.31
2022-11-29T03:18:32.895Z,101276.75
2022-11-29T03:21:33.180Z,101264.63
2022-11-29T03:24:15.865Z,101266.97
2022-11-29T03:26:46.273Z,101271.53
2022-11-29T03:29:35.998Z,101271.16
2022-11-29T03:32:44.340Z,101269.31
2022-11-29T03:35:40.848Z,101277.94
2022-11-29T03:38:16.499Z,101279.81
2022-11-29T03:40:54.928Z,101278.13
2022-11-29T03:43:30.610Z,101274.75
2022-11-29T03:46:20.558Z,101278.13
2022-11-29T03:48:52.111Z,101282.84
2022-11-29T03:51:54.660Z,101289.94
2022-11-29T03:54:43.550Z,101285.03
2022-11-29T03:57:13.166Z,101286.53
2022-11-29T03:59:51.752Z,101284.19
2022-11-29T04:02:48.516Z,101283.84
2022-11-29T04:05:18.024Z,101293.13
2022-11-29T04:08:08.997Z,101282.84
2022-11-29T04:10:53.652Z,101287.06
2022-11-29T04:13:39.477Z,101293.13
2022-11-29T04:16:08.785Z,101285.56
2022-11-29T04:18:56.841Z,101294.97
2022-11-29T04:21:41.768Z,101298.19
2022-11-29T04:24:20.018Z,101299.53
2022-11-29T04:27:07.804Z,101292.78
2022-11-29T04:29:55.957Z,101294.16
2022-11-29T04:33:01.416Z,101291.94
2022-11-29T04:35:51.953Z,101297.34
2022-11-29T04:38:24.383Z,101296.66
2022-11-29T04:41:03.073Z,101298.53
2022-11-29T04:43:54.428Z,101300.75
2022-11-29T04:46:30.026Z,101305.44
2022-11-29T04:49:05.705Z,101300.38
2022-11-29T04:51:47.481Z,101302.91
2022-11-29T04:54:29.129Z,101299.19
2022-11-29T04:57:20.799Z,101301.75
2022-11-29T05:00:09.802Z,101301.22
2022-11-29T05:02:59.446Z,101300.03
2022-11-29T05:05:44.637Z,101308.84
2022-11-29T05:08:36.601Z,101305.13
2022-11-29T05:11:16.174Z,101307.16
2022-11-29T05:14:04.003Z,101307.66
2022-11-29T05:16:41.054Z,101316.59
2022-11-29T05:19:25.929Z,101317.09
2022-11-29T05:22:28.832Z,101317.25
2022-11-29T05:25:01.218Z,101326.19
2022-11-29T05:27:56.752Z,101324.34
2022-11-29T05:30:25.465Z,101328.06
2022-11-29T05:33:08.606Z,101324.19
2022-11-29T05:35:50.800Z,101330.44
2022-11-29T05:38:35.421Z,101339.88
2022-11-29T05:41:13.810Z,101346.63
2022-11-29T05:44:18.791Z,101343.59
2022-11-29T05:47:00.042Z,101343.41
2022-11-29T05:49:45.202Z,101344.78
2022-11-29T05:52:39.597Z,101352.69
2022-11-29T05:55:15.145Z,101357.75
2022-11-29T05:57:47.589Z,101352.84
2022-11-29T06:00:16.755Z,101351.16
2022-11-29T06:03:03.632Z,101361.78
2022-11-29T06:05:30.469Z,101367.38
2022-11-29T06:08:29.390Z,101365.72
2022-11-29T06:11:12.287Z,101364.16
2022-11-29T06:13:50.919Z,101355.06
2022-11-29T06:16:49.787Z,101366.56
2022-11-29T06:20:09.853Z,101363.84
2022-11-29T06:23:07.795Z,101377.19
2022-11-29T06:26:03.617Z,101379.22
2022-11-29T06:29:08.376Z,101379.88
2022-11-29T06:31:42.354Z,101379.88
2022-11-29T06:34:33.099Z,101377.66
2022-11-29T06:37:47.532Z,101386.97
2022-11-29T06:40:16.265Z,101387.63
2022-11-29T06:42:43.343Z,101391.16
2022-11-29T06:45:14.333Z,101385.41
2022-11-29T06:47:53.212Z,101395.25
2022-11-29T06:50:50.274Z,101400.47
2022-11-29T06:53:47.604Z,101400.28
2022-11-29T06:56:32.794Z,101397.59
2022-11-29T06:58:59.993Z,101401.81
2022-11-29T07:01:43.944Z,101396.25
2022-11-29T07:04:19.397Z,101405.88
2022-11-29T07:06:46.249Z,101407.56
2022-11-29T07:09:19.300Z,101415.47
2022-11-29T07:11:47.331Z,101412.13
2022-11-29T07:14:14.760Z,101420.88
2022-11-29T07:16:41.226Z,101415.66
2022-11-29T07:19:23.071Z,101416.69
2022-11-29T07:22:20.430Z,101424.78
2022-11-29T07:25:20.399Z,101425.13
2022-11-29T07:28:24.963Z,101425.44
2022-11-29T07:31:19.584Z,101429.66
2022-11-29T07:34:27.416Z,101435.41
2022-11-29T07:37:07.264Z,101444.34
2022-11-29T07:39:59.815Z,101443.66
2022-11-29T07:42:37.130Z,101439.13
2022-11-29T07:45:24.706Z,101442.66
2022-11-29T07:47:52.086Z,101448.91
2022-11-29T07:50:18.854Z,101445.50
2022-11-29T07:52:45.527Z,101451.97
2022-11-29T07:55:20.530Z,101447.72
2022-11-29T07:57:48.094Z,101452.81
2022-11-29T08:00:15.896Z,101453.47
2022-11-29T08:02:42.982Z,101449.09
2022-11-29T08:05:10.405Z,101456.84
2022-11-29T08:07:38.946Z,101448.75
2022-11-29T08:10:08.835Z,101452.28
2022-11-29T08:12:35.751Z,101454.97
2022-11-29T08:15:02.595Z,101460.38
2022-11-29T08:17:29.210Z,101460.06
2022-11-29T08:19:58.880Z,101450.94
2022-11-29T08:22:27.733Z,101462.94
2022-11-29T08:24:54.258Z,101456.16
2022-11-29T08:27:20.793Z,101461.91
2022-11-29T08:29:47.331Z,101461.75
2022-11-29T08:32:13.966Z,101468.84
2022-11-29T08:34:40.490Z,101461.06
2022-11-29T08:37:07.011Z,101465.25
2022-11-29T08:39:33.552Z,101464.84
2022-11-29T08:42:00.084Z,101463.41
2022-11-29T08:44:26.655Z,101463.44
2022-11-29T08:47:11.921Z,101467.81
2022-11-29T08:50:01.019Z,101471.53
2022-11-29T08:52:50.841Z,101470.69
2022-11-29T08:55:19.958Z,101482.16
2022-11-29T08:57:47.596Z,101474.91
2022-11-29T09:00:14.750Z,101474.91
2022-11-29T09:02:41.406Z,101478.31
2022-11-29T09:05:09.656Z,101481.16
2022-11-29T09:07:36.308Z,101491.13
2022-11-29T09:10:05.849Z,101479.16
2022-11-29T09:12:32.759Z,101484.03
2022-11-29T09:14:59.489Z,101485.41
2022-11-29T09:17:26.037Z,101491.13
2022-11-29T09:19:52.610Z,101491.13
2022-11-29T09:22:19.167Z,101493.50
2022-11-29T09:24:46.986Z,101495.19
2022-11-29T09:27:13.794Z,101495.34
2022-11-29T09:29:40.350Z,101499.91
2022-11-29T09:32:06.989Z,101502.63
2022-11-29T09:34:33.749Z,101504.47
2022-11-29T09:37:00.361Z,101503.47
2022-11-29T09:39:26.944Z,101503.28
2022-11-29T09:42:21.532Z,101499.91
2022-11-29T09:45:02.548Z,101504.28
2022-11-29T09:47:37.960Z,101500.25
2022-11-29T09:50:23.345Z,101503.28
2022-11-29T09:53:27.288Z,101503.44
2022-11-29T09:56:19.148Z,101505.13
2022-11-29T09:58:56.806Z,101501.09
2022-11-29T10:01:31.453Z,101501.41
2022-11-29T10:04:05.629Z,101503.97
2022-11-29T10:06:45.998Z,101497.19
2022-11-29T10:09:30.877Z,101504.28
2022-11-29T10:12:23.633Z,101497.53
2022-11-29T10:14:56.953Z,101496.53
2022-11-29T10:17:34.739Z,101504.81
2022-11-29T10:20:15.962Z,101504.97
2022-11-29T10:22:49.643Z,101504.13
2022-11-29T10:25:32.334Z,101510.03
2022-11-29T10:27:59.178Z,101511.38
2022-11-29T10:30:25.817Z,101510.38
2022-11-29T10:32:57.758Z,101500.41
2022-11-29T10:35:24.853Z,101511.22
2022-11-29T10:38:22.712Z,101511.03
2022-11-29T10:40:46.784Z,101506.66
2022-11-29T10:43:13.945Z,101510.56
2022-11-29T10:45:50.019Z,101516.63
2022-11-29T10:48:19.787Z,101515.44
2022-11-29T10:50:48.971Z,101506.31
2022-11-29T10:53:36.642Z,101514.41
2022-11-29T10:56:09.918Z,101511.22
2022-11-29T10:58:52.551Z,101515.78
2022-11-29T11:01:19.170Z,101503.44
2022-11-29T11:03:54.084Z,101504.81
2022-11-29T11:06:44.854Z,101513.94
2022-11-29T11:09:22.405Z,101510.38
2022-11-29T11:11:55.727Z,101514.06
2022-11-29T11:14:37.562Z,101521.88
2022-11-29T11:17:21.147Z,101512.75
2022-11-29T11:19:58.423Z,101517.47
2022-11-29T11:22:26.487Z,101519.81
2022-11-29T11:24:59.657Z,101523.03
2022-11-29T11:27:35.104Z,101517.78
2022-11-29T11:30:04.447Z,101527.59
2022-11-29T11:32:31.480Z,101522.34
2022-11-29T11:35:00.612Z,101521.34
2022-11-29T11:37:28.914Z,101521.03
2022-11-29T11:40:17.800Z,101525.22
2022-11-29T11:42:44.816Z,101526.25
2022-11-29T11:45:11.308Z,101517.47
2022-11-29T11:47:50.664Z,101526.91
2022-11-29T11:50:27.594Z,101521.19
2022-11-29T11:52:57.672Z,101536.03
2022-11-29T11:55:36.237Z,101532.00
2022-11-29T11:58:13.298Z,101536.88
2022-11-29T12:03:57.567Z,101534.00
2022-11-29T12:06:42.354Z,101535.16
2022-11-29T12:09:09.056Z,101533.66
2022-11-29T12:11:46.062Z,101539.59
2022-11-29T12:14:34.338Z,101548.53
2022-11-29T12:17:19.808Z,101540.56
2022-11-29T12:20:10.509Z,101546.81
2022-11-29T12:23:12.257Z,101540.91
2022-11-29T12:25:58.077Z,101540.75
2022-11-29T12:28:38.214Z,101548.19
2022-11-29T12:31:23.471Z,101548.34
2022-11-29T12:34:00.379Z,101552.91
2022-11-29T12:36:45.744Z,101541.25
2022-11-29T12:39:48.030Z,101549.19
2022-11-29T12:42:23.373Z,101552.38
2022-11-29T12:45:01.989Z,101551.06
2022-11-29T12:47:53.288Z,101558.13
2022-11-29T12:50:55.649Z,101559.16
2022-11-29T12:53:57.133Z,101566.75
2022-11-29T12:56:34.336Z,101570.63
2022-11-29T12:59:07.424Z,101570.97
2022-11-29T13:02:11.652Z,101567.09
2022-11-29T13:05:03.009Z,101577.41
2022-11-29T13:07:43.854Z,101575.84
2022-11-29T13:10:34.639Z,101572.69
2022-11-29T13:13:04.078Z,101575.84
2022-11-29T13:16:14.682Z,101576.69
2022-11-29T13:19:03.762Z,101579.22
2022-11-29T13:21:51.992Z,101582.47
2022-11-29T13:24:28.818Z,101580.94
2022-11-29T13:26:57.212Z,101585.34
2022-11-29T13:29:25.661Z,101580.94
2022-11-29T13:31:52.502Z,101587.88
2022-11-29T13:34:30.311Z,101586.84
2022-11-29T13:37:33.572Z,101586.34
2022-11-29T13:40:18.258Z,101587.19
2022-11-29T13:42:45.351Z,101592.75
2022-11-29T13:45:27.204Z,101586.34
2022-11-29T13:47:57.741Z,101594.75
2022-11-29T13:50:42.399Z,101583.78
2022-11-29T13:53:24.245Z,101588.34
2022-11-29T13:56:02.106Z,101596.44
2022-11-29T13:58:28.628Z,101599.16
2022-11-29T14:01:01.846Z,101597.28
2022-11-29T14:03:36.317Z,101595.78
2022-11-29T14:06:04.773Z,101599.31
2022-11-29T14:09:10.299Z,101599.31
2022-11-29T14:12:16.361Z,101595.09
2022-11-29T14:14:51.871Z,101600.16
2022-11-29T14:17:56.765Z,101602.88
2022-11-29T14:20:23.257Z,101609.44
2022-11-29T14:23:04.836Z,101608.28
2022-11-29T14:25:54.465Z,101612.47
2022-11-29T14:28:20.937Z,101611.47
2022-11-29T14:30:58.375Z,101609.97
2022-11-29T14:33:38.939Z,101609.97
2022-11-29T14:36:30.060Z,101619.06
2022-11-29T14:39:24.078Z,101619.25
2022-11-29T14:42:03.767Z,101620.94
2022-11-29T14:44:32.942Z,101623.81
2022-11-29T14:47:02.647Z,101626.69
2022-11-29T14:49:30.801Z,101629.50
2022-11-29T14:52:13.584Z,101627.00
2022-11-29T14:55:28.474Z,101625.50
2022-11-29T14:57:57.746Z,101626.13
2022-11-29T15:00:46.072Z,101630.38
2022-11-29T15:03:24.779Z,101638.31
2022-11-29T15:06:00.677Z,101632.22
2022-11-29T15:08:35.480Z,101639.47
2022-11-29T15:11:11.506Z,101631.06
2022-11-29T15:14:03.938Z,101633.22
2022-11-29T15:16:58.370Z,101640.47
2022-11-29T15:19:52.521Z,101632.56
2022-11-29T15:22:27.638Z,101649.78
2022-11-29T15:25:02.168Z,101645.03
2022-11-29T15:27:29.188Z,101650.75
2022-11-29T15:29:55.773Z,101650.63
2022-11-29T15:32:32.707Z,101650.44
2022-11-29T15:34:59.604Z,101657.53
2022-11-29T15:37:32.218Z,101662.09
2022-11-29T15:40:22.148Z,101662.78
2022-11-29T15:43:13.497Z,101660.94
2022-11-29T15:45:40.407Z,101665.63
2022-11-29T15:48:14.179Z,101666.34
2022-11-29T15:50:47.078Z,101668.19
2022-11-29T15:53:20.447Z,101668.03
2022-11-29T15:55:50.546Z,101670.19
2022-11-29T15:58:18.036Z,101673.75
2022-11-29T16:00:49.708Z,101675.13
2022-11-29T16:03:25.455Z,101673.44
2022-11-29T16:06:26.340Z,101677.44
2022-11-29T16:08:54.332Z,101675.59
2022-11-29T16:11:24.034Z,101682.84
2022-11-29T16:14:23.938Z,101682.56
2022-11-29T16:16:54.278Z,101682.31
2022-11-29T16:19:34.924Z,101687.09
2022-11-29T16:22:11.684Z,101693.50
2022-11-29T16:24:40.532Z,101692.97
2022-11-29T16:27:08.227Z,101697.91
2022-11-29T16:29:38.495Z,101701.13
2022-11-29T16:32:22.578Z,101706.34
2022-11-29T16:34:49.395Z,101701.28
2022-11-29T16:37:25.126Z,101697.91
2022-11-29T16:39:57.303Z,101700.75
2022-11-29T16:42:30.051Z,101707.16
2022-11-29T16:45:02.339Z,101712.72
2022-11-29T16:47:31.563Z,101717.28
2022-11-29T16:50:16.984Z,101711.72
2022-11-29T16:52:43.886Z,101719.44
2022-11-29T16:55:10.573Z,101713.56
2022-11-29T16:57:38.340Z,101718.50
2022-11-29T17:00:34.382Z,101718.13
2022-11-29T17:03:01.071Z,101728.09
2022-11-29T17:05:27.734Z,101719.19
2022-11-29T17:07:54.913Z,101728.47
2022-11-29T17:10:24.998Z,101718.66
2022-11-29T17:12:51.714Z,101724.03
2022-11-29T17:15:18.546Z,101727.47
2022-11-29T17:17:45.151Z,101729.16
2022-11-29T17:20:13.313Z,101727.13
2022-11-29T17:22:40.205Z,101728.28
2022-11-29T17:25:07.384Z,101733.88
2022-11-29T17:27:33.954Z,101732.84
2022-11-29T17:30:00.529Z,101737.53
2022-11-29T17:32:27.303Z,101734.53
2022-11-29T17:34:53.963Z,101736.56
2022-11-29T17:37:20.623Z,101745.66
2022-11-29T17:39:49.087Z,101744.34
2022-11-29T17:42:15.955Z,101747.38
2022-11-29T17:44:42.664Z,101742.81
2022-11-29T17:47:09.337Z,101746.38
2022-11-29T17:49:36.011Z,101748.91
2022-11-29T17:52:02.730Z,101751.59
2022-11-29T17:54:32.949Z,101753.28
2022-11-29T17:57:00.896Z,101761.19
2022-11-29T17:59:27.638Z,101752.59
2022-11-29T18:01:54.368Z,101756.16
2022-11-29T18:04:21.469Z,101764.44
2022-11-29T18:06:50.412Z,101753.63
2022-11-29T18:09:18.621Z,101762.19
2022-11-29T18:11:49.125Z,101761.56
2022-11-29T18:14:23.506Z,101766.41
2022-11-29T18:16:50.776Z,101765.56
2022-11-29T18:19:20.029Z,101772.53
2022-11-29T18:21:47.568Z,101772.38
2022-11-29T18:24:14.445Z,101771.34
2022-11-29T18:26:41.333Z,101772.38
2022-11-29T18:29:08.701Z,101771.50
2022-11-29T18:31:37.615Z,101768.97
2022-11-29T18:34:13.144Z,101781.63
2022-11-29T18:36:48.017Z,101770.97
2022-11-29T18:39:16.714Z,101773.66
2022-11-29T18:41:47.220Z,101780.09
2022-11-29T18:44:15.813Z,101777.22
2022-11-29T18:46:44.107Z,101781.78
2022-11-29T18:49:13.634Z,101780.94
2022-11-29T18:51:43.004Z,101776.91
2022-11-29T18:54:11.273Z,101789.09
2022-11-29T18:56:38.452Z,101786.03
2022-11-29T18:59:11.438Z,101786.53
2022-11-29T19:01:43.129Z,101789.09
2022-11-29T19:04:12.528Z,101789.63
2022-11-29T19:06:40.110Z,101789.63
2022-11-29T19:09:11.436Z,101783.91
2022-11-29T19:11:38.081Z,101790.97
2022-11-29T19:14:11.225Z,101787.28
2022-11-29T19:16:39.748Z,101792.69
2022-11-29T19:19:07.105Z,101784.41
2022-11-29T19:21:34.668Z,101781.88
2022-11-29T19:24:07.653Z,101786.09
2022-11-29T19:26:34.745Z,101789.63
2022-11-29T19:29:01.816Z,101790.66
2022-11-29T19:31:28.963Z,101790.66
2022-11-29T19:33:56.842Z,101795.03
2022-11-29T19:36:25.618Z,101794.19
2022-11-29T19:38:54.215Z,101793.72
2022-11-29T19:41:23.633Z,101787.47
2022-11-29T19:43:50.951Z,101792.69
2022-11-29T19:46:18.643Z,101801.09
2022-11-29T19:48:45.849Z,101797.56
2022-11-29T19:51:13.657Z,101801.59
2022-11-29T19:53:40.351Z,101796.34
2022-11-29T19:56:10.434Z,101801.59
2022-11-29T19:58:37.062Z,101801.75
2022-11-29T20:01:15.689Z,101803.75
2022-11-29T20:03:42.835Z,101803.09
2022-11-29T20:06:09.748Z,101806.47
2022-11-29T20:08:37.384Z,101805.06
2022-11-29T20:11:12.370Z,101809.34
2022-11-29T20:13:40.165Z,101816.03
2022-11-29T20:16:10.148Z,101817.72
2022-11-29T20:18:39.293Z,101809.63
2022-11-29T20:21:10.661Z,101815.88
2022-11-29T20:23:39.225Z,101813.34
2022-11-29T20:26:08.109Z,101810.84
2022-11-29T20:28:35.934Z,101822.16
2022-11-29T20:31:07.854Z,101825.53
2022-11-29T20:33:35.035Z,101832.97
2022-11-29T20:36:39.296Z,101823.00
2022-11-29T20:39:45.965Z,101830.38
2022-11-29T20:42:43.851Z,101828.25
2022-11-29T20:45:12.554Z,101831.56
2022-11-29T20:48:11.264Z,101826.84
2022-11-29T20:50:38.201Z,101833.94
2022-11-29T20:53:04.732Z,101836.13
2022-11-29T20:55:31.590Z,101830.25
2022-11-29T20:57:58.280Z,101833.94
2022-11-29T21:00:25.213Z,101831.22
2022-11-29T21:02:51.921Z,101833.09
2022-11-29T21:05:18.509Z,101834.66
2022-11-29T21:07:45.822Z,101835.66
2022-11-29T21:10:15.352Z,101835.16
2022-11-29T21:12:45.550Z,101840.72
2022-11-29T21:15:13.764Z,101837.19
2022-11-29T21:17:41.347Z,101839.88
2022-11-29T21:20:09.159Z,101838.38
2022-11-29T21:22:38.345Z,101837.19
2022-11-29T21:25:30.766Z,101833.47
2022-11-29T21:27:57.620Z,101837.66
2022-11-29T21:30:25.294Z,101848.69
2022-11-29T21:32:52.492Z,101852.38
2022-11-29T21:35:19.691Z,101845.13
2022-11-29T21:37:46.457Z,101850.53
2022-11-29T21:40:14.575Z,101853.06
2022-11-29T21:42:41.178Z,101851.38
2022-11-29T21:45:13.450Z,101852.22
2022-11-29T21:47:42.751Z,101848.50
2022-11-29T21:50:09.740Z,101850.53
2022-11-29T21:52:36.326Z,101848.69
2022-11-29T21:55:03.143Z,101855.09
2022-11-29T21:57:29.715Z,101847.66
2022-11-29T21:59:56.296Z,101850.22
2022-11-29T22:02:22.987Z,101854.47
2022-11-29T22:04:49.721Z,101858.00
2022-11-29T22:07:16.383Z,101860.38
2022-11-29T22:09:43.101Z,101861.22
2022-11-29T22:12:32.578Z,101859.22
2022-11-29T22:14:56.253Z,101858.03
2022-11-29T22:17:22.853Z,101861.75
2022-11-29T22:19:49.405Z,101872.25
2022-11-29T22:22:16.104Z,101860.28
2022-11-29T22:24:42.680Z,101867.69
2022-11-29T22:27:09.249Z,101867.38
2022-11-29T22:29:35.839Z,101872.78
2022-11-29T22:32:02.640Z,101870.75
2022-11-29T22:34:29.289Z,101871.59
2022-11-29T22:36:56.295Z,101869.06
2022-11-29T22:39:24.176Z,101871.75
2022-11-29T22:41:54.599Z,101870.75
2022-11-29T22:44:22.733Z,101870.75
2022-11-29T22:46:49.411Z,101865.34
2022-11-29T22:49:16.081Z,101876.16
2022-11-29T22:51:42.668Z,101872.59
2022-11-29T22:54:11.640Z,101874.28
2022-11-29T22:56:40.280Z,101874.13
2022-11-29T22:59:07.455Z,101871.59
2022-11-29T23:01:36.140Z,101867.88
2022-11-29T23:04:05.281Z,101876.00
2022-11-29T23:06:34.892Z,101876.00
2022-11-29T23:09:17.015Z,101873.28
2022-11-29T23:11:45.654Z,101878.84
2022-11-29T23:14:12.977Z,101880.53
2022-11-29T23:16:41.606Z,101886.97
2022-11-29T23:19:09.029Z,101888.66
2022-11-29T23:21:39.883Z,101889.34
2022-11-29T23:24:07.180Z,101883.25
2022-11-29T23:26:37.552Z,101892.19
2022-11-29T23:29:05.390Z,101886.97
2022-11-29T23:31:32.039Z,101889.81
2022-11-29T23:33:58.888Z,101899.47
2022-11-29T23:36:25.935Z,101891.84
2022-11-29T23:38:52.623Z,101898.72
2022-11-29T23:41:19.218Z,101893.13
2022-11-29T23:43:45.806Z,101897.47
2022-11-29T23:46:15.559Z,101899.16
2022-11-29T23:48:42.899Z,101899.78
2022-11-29T23:51:10.280Z,101903.03
2022-11-29T23:53:37.137Z,101898.75
2022-11-29T23:56:07.237Z,101891.50
2022-11-29T23:58:35.049Z,101893.69
